Time;durP1;ratioP1;P1;durP2;ratioP2;P2;SDS_P1;SDS_P2;PMS_P1;PMS_P2;Temp;Humidity;BMP_temperature;BMP_pressure;BME280_temperature;BME280_humidity;BME280_pressure;Samples;Min_cycle;Max_cycle;Signal;HPM_P1;HPM_P2
2023/03/13 00:01:01;;;;;;;14.50;2.55;;;;;;;7.44;100.00;99643.66;5100584;29;20051;-72
2023/03/13 00:03:31;;;;;;;7.97;1.67;;;;;;;7.43;100.00;99639.38;5104103;29;20118;-72
2023/03/13 00:06:01;;;;;;;14.25;2.30;;;;;;;7.50;100.00;99623.47;5109058;29;20027;-73
2023/03/13 00:08:32;;;;;;;10.00;2.28;;;;;;;7.46;100.00;99623.66;5097120;29;20046;-73
2023/03/13 00:11:07;;;;;;;13.23;2.10;;;;;;;7.44;100.00;99612.47;5116038;29;20039;-72
2023/03/13 00:13:37;;;;;;;10.88;2.10;;;;;;;7.47;100.00;99617.53;5104270;29;20261;-73
2023/03/13 00:16:13;;;;;;;15.52;2.42;;;;;;;7.28;100.00;99621.75;5111102;29;20040;-73
2023/03/13 00:18:48;;;;;;;11.98;2.10;;;;;;;7.41;100.00;99620.38;5105160;29;20039;-72
2023/03/13 00:21:21;;;;;;;12.35;3.08;;;;;;;7.46;100.00;99613.25;5099998;29;20039;-73
2023/03/13 00:23:52;;;;;;;10.32;2.28;;;;;;;7.53;100.00;99617.31;5099081;29;20051;-72
2023/03/13 00:26:25;;;;;;;13.13;2.25;;;;;;;7.62;100.00;99604.81;5100614;29;20390;-72
2023/03/13 00:28:55;;;;;;;10.18;2.10;;;;;;;7.66;100.00;99606.38;5099859;29;20102;-72
2023/03/13 00:31:28;;;;;;;11.95;2.70;;;;;;;7.69;100.00;99600.22;5099862;29;20114;-73
2023/03/13 00:34:01;;;;;;;10.75;2.03;;;;;;;7.62;100.00;99594.41;5097216;29;20094;-72
2023/03/13 00:36:33;;;;;;;10.88;2.30;;;;;;;7.67;100.00;99587.28;5117666;29;20074;-72
2023/03/13 00:39:05;;;;;;;12.25;2.35;;;;;;;7.63;100.00;99592.66;5103172;29;20604;-73
2023/03/13 00:41:36;;;;;;;15.80;2.58;;;;;;;7.54;100.00;99585.22;5099692;28;20174;-73
2023/03/13 00:44:07;;;;;;;10.43;1.85;;;;;;;7.58;100.00;99592.84;5102663;29;20031;-72
2023/03/13 00:46:37;;;;;;;6.95;1.65;;;;;;;7.58;100.00;99579.84;5092401;29;20630;-73
2023/03/13 00:49:08;;;;;;;13.65;2.20;;;;;;;7.58;100.00;99582.47;5098990;29;20035;-75
2023/03/13 00:51:38;;;;;;;9.77;2.10;;;;;;;7.68;100.00;99570.75;5099368;29;20051;-72
2023/03/13 00:54:08;;;;;;;14.57;2.50;;;;;;;7.73;100.00;99568.81;5100546;29;20078;-72
2023/03/13 00:56:38;;;;;;;16.23;2.50;;;;;;;7.70;100.00;99566.34;5100957;29;20094;-72
2023/03/13 00:59:09;;;;;;;13.73;2.75;;;;;;;7.71;100.00;99573.22;5114227;29;20032;-72
2023/03/13 01:01:39;;;;;;;14.50;2.08;;;;;;;7.71;100.00;99568.03;5099755;29;20504;-71
2023/03/13 01:04:10;;;;;;;8.60;2.05;;;;;;;7.76;100.00;99560.91;5107988;29;20031;-72
2023/03/13 01:06:41;;;;;;;6.95;1.95;;;;;;;7.68;100.00;99546.53;5105423;29;20100;-72
2023/03/13 01:09:13;;;;;;;11.32;1.77;;;;;;;7.64;100.00;99551.00;5100016;29;20031;-73
2023/03/13 01:11:45;;;;;;;10.70;2.67;;;;;;;7.68;100.00;99543.94;5114638;29;20059;-72
2023/03/13 01:14:18;;;;;;;8.88;2.05;;;;;;;7.77;100.00;99541.81;5099887;29;20035;-72
2023/03/13 01:16:48;;;;;;;15.13;2.40;;;;;;;7.92;100.00;99535.97;5108013;29;20058;-72
2023/03/13 01:19:20;;;;;;;14.43;2.33;;;;;;;7.86;100.00;99536.22;5109253;29;20541;-72
2023/03/13 01:21:50;;;;;;;11.80;2.85;;;;;;;7.83;100.00;99531.13;5086932;29;20058;-72
2023/03/13 01:24:21;;;;;;;9.65;1.85;;;;;;;7.97;100.00;99527.97;5084646;29;20027;-72
2023/03/13 01:26:51;;;;;;;9.25;2.03;;;;;;;8.00;100.00;99530.44;5100110;29;20035;-74
2023/03/13 01:29:22;;;;;;;11.23;2.28;;;;;;;7.92;100.00;99522.97;5099921;29;20429;-73
2023/03/13 01:31:52;;;;;;;10.10;1.92;;;;;;;7.99;100.00;99521.78;5100058;29;20175;-73
2023/03/13 01:34:22;;;;;;;12.70;2.10;;;;;;;8.01;100.00;99519.97;5102535;29;20123;-73
2023/03/13 01:36:53;;;;;;;11.13;2.20;;;;;;;7.90;100.00;99516.13;5115336;29;20042;-73
2023/03/13 01:39:23;;;;;;;15.85;2.72;;;;;;;7.97;100.00;99515.81;5104964;29;20031;-73
2023/03/13 01:41:53;;;;;;;11.40;2.97;;;;;;;7.93;100.00;99516.84;5099304;29;20401;-73
2023/03/13 01:44:25;;;;;;;11.75;2.25;;;;;;;7.91;100.00;99513.44;5108032;29;20027;-73
2023/03/13 01:46:55;;;;;;;9.82;2.05;;;;;;;8.00;100.00;99507.88;5104052;29;20042;-72
2023/03/13 01:49:32;;;;;;;11.27;2.08;;;;;;;8.06;100.00;99496.38;5098754;29;20571;-73
2023/03/13 01:52:09;;;;;;;21.40;2.40;;;;;;;8.17;100.00;99495.00;5100568;29;20482;-72
2023/03/13 01:54:44;;;;;;;13.23;2.15;;;;;;;8.11;100.00;99490.06;5112718;29;20055;-72
2023/03/13 01:57:29;;;;;;;14.48;2.40;;;;;;;8.23;100.00;99486.94;5087258;29;20028;-71
2023/03/13 02:00:07;;;;;;;13.13;2.30;;;;;;;8.23;100.00;99473.94;5100512;29;20066;-72
2023/03/13 02:02:41;;;;;;;11.80;2.15;;;;;;;8.24;100.00;99473.00;5104711;29;20498;-72
2023/03/13 02:05:15;;;;;;;9.43;2.05;;;;;;;8.24;100.00;99470.41;5111905;29;20105;-73
2023/03/13 02:07:59;;;;;;;18.08;2.33;;;;;;;8.25;100.00;99464.28;5113795;29;20059;-72
2023/03/13 02:10:33;;;;;;;11.30;2.05;;;;;;;8.23;100.00;99458.31;5104616;29;20031;-72
2023/03/13 02:13:03;;;;;;;19.92;2.47;;;;;;;8.20;100.00;99445.44;5102565;29;20078;-73
2023/03/13 02:15:33;;;;;;;13.05;2.00;;;;;;;8.15;100.00;99436.09;5116243;29;20047;-73
2023/03/13 02:18:04;;;;;;;14.10;2.17;;;;;;;8.11;100.00;99431.97;5102304;29;20031;-72
2023/03/13 02:20:34;;;;;;;12.45;2.10;;;;;;;8.13;100.00;99427.53;5103421;29;20039;-73
2023/03/13 02:23:18;;;;;;;13.40;2.13;;;;;;;8.24;100.00;99413.16;5103609;29;20031;-73
2023/03/13 02:25:51;;;;;;;12.82;1.90;;;;;;;8.29;100.00;99416.41;5099576;29;20032;-73
2023/03/13 02:28:32;;;;;;;13.95;2.22;;;;;;;8.19;100.00;99403.91;5102286;29;20035;-73
2023/03/13 02:31:03;;;;;;;10.10;1.65;;;;;;;8.13;100.00;99398.91;5088535;29;20086;-72
2023/03/13 02:33:40;;;;;;;12.50;1.95;;;;;;;8.14;100.00;99390.19;5095359;29;20766;-72
2023/03/13 02:36:12;;;;;;;11.38;1.70;;;;;;;8.09;100.00;99387.81;5104904;29;20028;-72
2023/03/13 02:38:51;;;;;;;12.77;2.08;;;;;;;8.13;100.00;99391.97;5101796;29;20032;-73
2023/03/13 02:41:22;;;;;;;14.77;2.03;;;;;;;8.09;100.00;99382.59;5115515;29;20051;-72
2023/03/13 02:43:52;;;;;;;15.95;2.63;;;;;;;8.05;100.00;99386.25;5101341;29;20520;-73
2023/03/13 02:46:22;;;;;;;13.77;2.10;;;;;;;8.14;100.00;99385.84;5114346;29;20114;-72
2023/03/13 02:48:55;;;;;;;19.25;2.30;;;;;;;8.12;100.00;99377.25;5101729;29;20028;-72
2023/03/13 02:51:38;;;;;;;12.02;2.10;;;;;;;8.18;100.00;99369.22;5101688;29;20090;-73
2023/03/13 02:54:18;;;;;;;12.43;1.88;;;;;;;8.11;100.00;99372.97;5106750;29;20035;-72
2023/03/13 02:56:53;;;;;;;9.82;1.83;;;;;;;8.10;100.00;99363.47;5101372;29;20035;-73
2023/03/13 02:59:24;;;;;;;16.02;2.15;;;;;;;8.14;100.00;99351.16;5099942;29;20027;-74
2023/03/13 03:01:54;;;;;;;12.48;2.00;;;;;;;8.25;100.00;99354.16;5097099;29;20508;-72
2023/03/13 03:04:25;;;;;;;10.80;2.38;;;;;;;8.20;100.00;99349.16;5112411;29;20054;-73
2023/03/13 03:06:56;;;;;;;14.80;2.60;;;;;;;8.16;100.00;99352.78;5110339;29;20118;-73
2023/03/13 03:09:26;;;;;;;8.90;2.13;;;;;;;8.15;100.00;99350.25;5097976;29;20086;-72
2023/03/13 03:11:57;;;;;;;16.75;2.20;;;;;;;8.15;100.00;99345.91;5098433;29;20036;-72
2023/03/13 03:14:27;;;;;;;14.15;1.90;;;;;;;8.13;100.00;99337.31;5086644;29;20046;-72
2023/03/13 03:16:57;;;;;;;8.77;1.70;;;;;;;8.07;100.00;99334.97;5102059;29;20083;-74
2023/03/13 03:19:28;;;;;;;12.02;2.58;;;;;;;8.11;100.00;99325.28;5097752;29;20306;-72
2023/03/13 03:21:58;;;;;;;16.90;2.00;;;;;;;8.03;100.00;99325.63;5097878;29;20512;-73
2023/03/13 03:24:28;;;;;;;14.88;2.40;;;;;;;7.96;100.00;99319.03;5095480;29;20172;-73
2023/03/13 03:26:58;;;;;;;11.60;1.98;;;;;;;7.98;100.00;99299.00;5098176;29;20032;-73
2023/03/13 03:29:29;;;;;;;12.15;2.25;;;;;;;8.06;100.00;99291.66;5097662;29;20554;-73
2023/03/13 03:31:59;;;;;;;9.10;1.88;;;;;;;8.03;100.00;99286.59;5097451;29;20086;-73
2023/03/13 03:34:29;;;;;;;12.05;2.05;;;;;;;7.97;100.00;99284.31;5105998;29;20063;-73
2023/03/13 03:37:00;;;;;;;9.95;2.03;;;;;;;8.04;100.00;99277.88;5102920;29;20090;-75
2023/03/13 03:39:30;;;;;;;10.32;1.55;;;;;;;8.05;100.00;99278.75;5097159;29;20122;-73
2023/03/13 03:42:00;;;;;;;10.32;1.73;;;;;;;8.01;100.00;99270.22;5097810;29;20035;-72
2023/03/13 03:44:31;;;;;;;9.38;1.80;;;;;;;8.01;100.00;99261.59;5104804;29;20031;-73
2023/03/13 03:47:01;;;;;;;14.45;2.58;;;;;;;7.86;100.00;99259.69;5095864;29;20478;-75
2023/03/13 03:49:31;;;;;;;14.35;2.30;;;;;;;7.85;100.00;99253.63;5097455;29;20059;-72
2023/03/13 03:52:01;;;;;;;15.40;2.30;;;;;;;7.79;100.00;99240.06;5097374;29;20497;-72
2023/03/13 03:54:32;;;;;;;13.07;1.92;;;;;;;7.73;100.00;99228.19;5098314;29;20039;-72
2023/03/13 03:57:02;;;;;;;11.95;1.55;;;;;;;7.77;100.00;99221.97;5097537;29;20128;-72
2023/03/13 03:59:32;;;;;;;9.40;1.42;;;;;;;7.75;100.00;99202.13;5097105;29;20031;-73
2023/03/13 04:02:03;;;;;;;8.85;1.98;;;;;;;7.72;100.00;99190.09;5096788;29;20055;-73
2023/03/13 04:04:33;;;;;;;15.10;2.10;;;;;;;7.66;100.00;99186.97;5087396;29;20557;-73
2023/03/13 04:07:03;;;;;;;10.98;1.92;;;;;;;7.66;100.00;99180.00;5101542;29;20035;-72
2023/03/13 04:09:34;;;;;;;14.48;2.05;;;;;;;7.63;100.00;99180.13;5081567;29;20039;-72
2023/03/13 04:12:04;;;;;;;11.40;1.85;;;;;;;7.67;100.00;99176.47;5096674;29;20050;-73
2023/03/13 04:14:35;;;;;;;11.07;1.90;;;;;;;7.71;100.00;99172.81;5104242;29;20304;-73
2023/03/13 04:17:05;;;;;;;8.77;1.55;;;;;;;7.71;100.00;99172.00;5102622;29;20039;-73
2023/03/13 04:19:35;;;;;;;10.88;1.80;;;;;;;7.70;100.00;99165.94;5096296;29;20071;-72
2023/03/13 04:22:06;;;;;;;14.95;2.08;;;;;;;7.66;100.00;99154.00;5096242;29;20031;-72
2023/03/13 04:24:36;;;;;;;14.18;2.10;;;;;;;7.70;100.00;99154.72;5093967;29;20075;-73
2023/03/13 04:27:06;;;;;;;10.98;2.63;;;;;;;7.68;100.00;99146.97;5097889;29;20573;-73
2023/03/13 04:29:37;;;;;;;17.63;2.00;;;;;;;7.64;100.00;99142.84;5096570;29;20051;-72
2023/03/13 04:32:07;;;;;;;13.77;2.08;;;;;;;7.66;100.00;99137.56;5096844;29;20043;-72
2023/03/13 04:34:38;;;;;;;17.15;2.03;;;;;;;7.72;100.00;99132.06;5083208;29;20050;-72
2023/03/13 04:37:08;;;;;;;13.75;1.83;;;;;;;7.66;100.00;99128.00;5097613;29;20024;-72
2023/03/13 04:39:38;;;;;;;15.65;2.03;;;;;;;7.64;100.00;99128.97;5102951;29;20049;-72
2023/03/13 04:42:10;;;;;;;17.70;2.13;;;;;;;7.69;100.00;99117.44;5101113;29;20035;-73
2023/03/13 04:44:41;;;;;;;17.42;2.40;;;;;;;7.65;100.00;99121.13;5110709;29;20023;-74
2023/03/13 04:47:11;;;;;;;18.73;2.28;;;;;;;7.61;100.00;99116.13;5096811;29;20643;-73
2023/03/13 04:49:41;;;;;;;22.10;2.55;;;;;;;7.59;100.00;99121.41;5096410;29;20063;-73
2023/03/13 04:52:12;;;;;;;13.65;1.92;;;;;;;7.58;100.00;99114.53;5096737;29;20512;-73
2023/03/13 04:54:42;;;;;;;10.73;2.05;;;;;;;7.62;100.00;99105.66;5096526;29;20035;-73
2023/03/13 04:57:12;;;;;;;9.10;1.80;;;;;;;7.61;100.00;99105.72;5097217;29;20032;-71
2023/03/13 04:59:43;;;;;;;14.20;2.13;;;;;;;7.65;100.00;99099.47;5096307;29;20035;-72
2023/03/13 05:02:13;;;;;;;15.27;2.00;;;;;;;7.59;100.00;99100.63;5110064;29;20095;-74
2023/03/13 05:04:43;;;;;;;15.52;1.90;;;;;;;7.57;100.00;99094.66;5095794;29;20271;-75
2023/03/13 05:07:14;;;;;;;12.80;2.20;;;;;;;7.59;100.00;99094.56;5095830;29;20031;-73
2023/03/13 05:09:44;;;;;;;14.40;2.08;;;;;;;7.58;100.00;99078.16;5102786;29;20092;-73
2023/03/13 05:12:14;;;;;;;9.88;1.85;;;;;;;7.60;100.00;99071.09;5100699;29;20027;-72
2023/03/13 05:14:44;;;;;;;20.75;2.65;;;;;;;7.60;100.00;99067.66;5105989;29;20038;-72
2023/03/13 05:17:16;;;;;;;14.15;1.80;;;;;;;7.63;100.00;99068.34;5102095;29;20130;-73
2023/03/13 05:19:47;;;;;;;14.02;1.85;;;;;;;7.64;100.00;99067.44;5097052;29;20438;-71
2023/03/13 05:22:17;;;;;;;13.35;1.83;;;;;;;7.64;100.00;99054.44;5095189;29;20086;-72
2023/03/13 05:24:47;;;;;;;16.15;2.10;;;;;;;7.65;100.00;99053.53;5097264;29;20031;-74
2023/03/13 05:27:17;;;;;;;10.57;1.85;;;;;;;7.62;100.00;99043.28;5098324;29;20126;-72
2023/03/13 05:29:48;;;;;;;11.52;1.90;;;;;;;7.67;100.00;99035.28;5106411;29;20043;-73
2023/03/13 05:32:18;;;;;;;14.82;2.45;;;;;;;7.67;100.00;99030.91;5094877;29;20035;-73
2023/03/13 05:34:48;;;;;;;11.25;2.05;;;;;;;7.72;100.00;99023.69;5095959;29;20522;-75
2023/03/13 05:37:18;;;;;;;12.30;2.05;;;;;;;7.85;100.00;99019.59;5096576;29;20032;-72
2023/03/13 05:39:49;;;;;;;13.30;2.05;;;;;;;7.91;100.00;99002.84;5097825;29;20031;-72
2023/03/13 05:42:19;;;;;;;9.90;1.80;;;;;;;7.82;100.00;99008.50;5100698;29;20508;-73
2023/03/13 05:44:49;;;;;;;13.70;1.73;;;;;;;8.00;100.00;99008.44;5105331;29;20198;-73
2023/03/13 05:47:20;;;;;;;11.02;1.60;;;;;;;7.97;100.00;99011.19;5099825;29;20042;-74
2023/03/13 05:49:51;;;;;;;8.73;1.52;;;;;;;7.95;100.00;99009.56;5096014;29;20048;-72
2023/03/13 05:52:21;;;;;;;14.43;2.25;;;;;;;8.00;100.00;99008.44;5095837;29;20036;-73
2023/03/13 05:54:51;;;;;;;8.50;1.60;;;;;;;8.00;100.00;99002.38;5095826;29;20038;-74
2023/03/13 05:57:22;;;;;;;8.68;1.50;;;;;;;8.23;100.00;98997.72;5096681;29;20040;-74
2023/03/13 05:59:53;;;;;;;9.02;1.92;;;;;;;8.21;100.00;99006.53;5094243;29;20035;-74
2023/03/13 06:02:23;;;;;;;10.90;1.30;;;;;;;8.25;100.00;99008.06;5094233;29;20046;-73
2023/03/13 06:04:53;;;;;;;7.68;1.50;;;;;;;8.29;100.00;99004.38;5099440;29;20031;-73
2023/03/13 06:07:24;;;;;;;7.82;1.50;;;;;;;8.37;100.00;98987.44;5096118;29;20103;-73
2023/03/13 06:09:54;;;;;;;8.48;1.70;;;;;;;8.43;100.00;98986.28;5096747;29;20036;-73
2023/03/13 06:12:24;;;;;;;6.07;1.40;;;;;;;8.53;100.00;98988.31;5096006;29;20102;-74
2023/03/13 06:14:55;;;;;;;11.73;1.60;;;;;;;8.53;100.00;98974.50;5101072;29;20028;-73
2023/03/13 06:17:25;;;;;;;7.68;1.50;;;;;;;8.57;100.00;98970.78;5103431;29;20432;-72
2023/03/13 06:19:55;;;;;;;11.48;1.73;;;;;;;8.64;100.00;98974.75;5098022;29;20033;-74
2023/03/13 06:22:26;;;;;;;6.05;1.50;;;;;;;8.67;100.00;98969.34;5094167;29;20039;-72
2023/03/13 06:24:56;;;;;;;6.28;1.73;;;;;;;8.71;100.00;98966.53;5096366;29;20142;-73
2023/03/13 06:27:26;;;;;;;11.52;1.48;;;;;;;8.76;100.00;98969.72;5090475;29;20024;-73
2023/03/13 06:29:56;;;;;;;7.10;2.17;;;;;;;8.78;100.00;98970.50;5095967;29;20118;-72
2023/03/13 06:32:27;;;;;;;5.15;1.15;;;;;;;8.76;100.00;98967.09;5094329;29;20172;-73
2023/03/13 06:34:57;;;;;;;5.03;1.30;;;;;;;8.88;100.00;98955.22;5093823;29;20043;-74
2023/03/13 06:37:28;;;;;;;6.18;1.15;;;;;;;9.01;100.00;98953.59;5094940;29;20056;-73
2023/03/13 06:39:58;;;;;;;3.80;1.20;;;;;;;9.03;100.00;98957.78;5094808;29;20465;-73
2023/03/13 06:42:29;;;;;;;10.98;1.63;;;;;;;9.00;100.00;98957.97;5096140;29;20031;-74
2023/03/13 06:44:59;;;;;;;9.70;1.98;;;;;;;9.10;100.00;98953.91;5110506;29;20403;-72
2023/03/13 06:47:31;;;;;;;7.57;1.27;;;;;;;9.11;100.00;98940.00;5104203;29;20053;-74
2023/03/13 06:50:01;;;;;;;6.75;1.85;;;;;;;9.11;100.00;98944.34;5105670;29;20042;-73
2023/03/13 06:52:31;;;;;;;4.85;1.30;;;;;;;9.14;100.00;98951.06;5101737;29;20471;-73
2023/03/13 06:55:03;;;;;;;5.57;1.10;;;;;;;9.22;100.00;98938.47;5101836;29;20031;-72
2023/03/13 06:57:33;;;;;;;5.55;1.50;;;;;;;9.12;100.00;98952.09;5085259;29;20063;-72
2023/03/13 07:00:05;;;;;;;6.68;1.80;;;;;;;9.13;100.00;98943.34;5100841;29;20055;-73
2023/03/13 07:02:35;;;;;;;8.43;1.35;;;;;;;9.22;100.00;98946.28;5102312;29;20501;-73
2023/03/13 07:05:06;;;;;;;7.57;1.50;;;;;;;9.36;100.00;98948.09;5112189;29;20063;-73
2023/03/13 07:07:37;;;;;;;3.05;1.02;;;;;;;9.30;100.00;98935.44;5108229;29;20035;-75
2023/03/13 07:10:09;;;;;;;7.20;1.27;;;;;;;9.41;100.00;98944.31;5102922;29;20486;-73
2023/03/13 07:12:39;;;;;;;7.38;1.35;;;;;;;9.33;100.00;98936.06;5116576;29;20063;-73
2023/03/13 07:15:10;;;;;;;8.05;1.20;;;;;;;9.41;100.00;98943.47;5110967;29;20055;-73
2023/03/13 07:17:40;;;;;;;6.88;1.33;;;;;;;9.51;100.00;98924.59;5106314;29;20028;-73
2023/03/13 07:22:42;;;;;;;6.55;1.27;;;;;;;9.50;100.00;98911.66;5123950;23;20059;-75
2023/03/13 07:25:13;;;;;;;5.80;1.20;;;;;;;9.36;100.00;98915.06;5097026;29;20032;-75
2023/03/13 07:27:43;;;;;;;3.97;0.90;;;;;;;9.53;100.00;98906.25;5097144;29;20036;-76
2023/03/13 07:30:13;;;;;;;4.95;1.10;;;;;;;9.47;100.00;98904.03;5102919;29;20082;-75
2023/03/13 07:32:44;;;;;;;7.88;1.45;;;;;;;9.51;100.00;98914.16;5096664;29;20035;-74
2023/03/13 07:35:14;;;;;;;4.75;1.15;;;;;;;9.53;100.00;98906.25;5111026;29;20042;-76
2023/03/13 07:37:45;;;;;;;5.45;1.52;;;;;;;9.51;100.00;98902.91;5095630;29;20046;-75
2023/03/13 07:40:15;;;;;;;10.40;1.20;;;;;;;9.57;100.00;98899.94;5096415;29;20043;-76
2023/03/13 07:42:45;;;;;;;4.80;1.40;;;;;;;9.51;100.00;98902.91;5102548;29;20048;-75
2023/03/13 07:45:16;;;;;;;6.43;1.40;;;;;;;9.58;100.00;98888.56;5107321;29;20501;-76
2023/03/13 07:47:46;;;;;;;2.72;1.15;;;;;;;9.66;100.00;98881.97;5103400;29;20051;-74
2023/03/13 07:50:16;;;;;;;3.78;1.23;;;;;;;9.74;100.00;98881.53;5103280;29;20563;-74
2023/03/13 07:52:47;;;;;;;6.85;1.30;;;;;;;9.78;100.00;98878.66;5098033;29;20524;-74
2023/03/13 07:55:17;;;;;;;5.72;1.00;;;;;;;9.87;100.00;98891.16;5094261;29;20470;-74
2023/03/13 07:57:47;;;;;;;6.95;1.45;;;;;;;9.96;100.00;98890.59;5095571;29;20031;-75
2023/03/13 08:00:18;;;;;;;4.10;1.00;;;;;;;10.09;100.00;98885.50;5095767;29;20087;-75
2023/03/13 08:02:49;;;;;;;6.10;1.30;;;;;;;10.32;100.00;98883.19;5093988;29;20035;-74
2023/03/13 08:05:19;;;;;;;4.25;1.30;;;;;;;10.29;100.00;98877.28;5107112;29;20086;-71
2023/03/13 08:07:49;;;;;;;5.18;1.05;;;;;;;10.31;100.00;98883.28;5103242;29;20059;-73
2023/03/13 08:10:19;;;;;;;4.25;0.93;;;;;;;10.37;100.00;98890.75;5095594;29;20035;-73
2023/03/13 08:12:50;;;;;;;4.72;1.40;;;;;;;10.32;100.00;98890.19;5094712;29;20032;-73
2023/03/13 08:15:24;;;;;;;6.20;1.70;;;;;;;10.37;100.00;98912.44;5105819;29;20079;-74
2023/03/13 08:17:55;;;;;;;3.63;1.50;;;;;;;10.49;100.00;98910.88;5095839;29;20320;-74
2023/03/13 08:20:25;;;;;;;2.15;0.90;;;;;;;10.56;100.00;98909.56;5095314;29;20028;-74
2023/03/13 08:22:56;;;;;;;1.92;0.80;;;;;;;10.53;100.00;98907.13;5094307;29;20035;-75
2023/03/13 08:25:27;;;;;;;2.55;0.98;;;;;;;10.57;100.00;98906.88;5096157;29;20043;-75
2023/03/13 08:27:57;;;;;;;2.67;1.00;;;;;;;10.61;100.00;98920.56;5097796;29;20150;-76
2023/03/13 08:30:27;;;;;;;3.90;1.10;;;;;;;10.63;100.00;98918.69;5095669;29;20414;-74
2023/03/13 08:32:57;;;;;;;2.65;0.90;;;;;;;10.57;100.00;98919.91;5091413;29;20106;-75
2023/03/13 08:35:29;;;;;;;3.15;0.95;;;;;;;10.62;100.00;98922.22;5106616;29;20046;-75
2023/03/13 08:37:59;;;;;;;6.25;1.10;;;;;;;10.63;100.00;98913.44;5094351;29;20294;-74
2023/03/13 08:40:29;;;;;;;2.15;0.77;;;;;;;10.75;100.00;98915.31;5083407;29;20414;-74
2023/03/13 08:43:00;;;;;;;4.00;0.82;;;;;;;10.69;100.00;98923.53;5095838;29;20054;-74
2023/03/13 08:45:30;;;;;;;1.80;0.77;;;;;;;10.67;100.00;98912.34;5105788;29;20031;-74
2023/03/13 08:48:00;;;;;;;3.28;0.80;;;;;;;10.65;100.00;98911.63;5097932;29;20122;-74
2023/03/13 08:50:31;;;;;;;2.03;0.63;;;;;;;10.62;100.00;98903.94;5095217;29;20444;-74
2023/03/13 08:53:01;;;;;;;3.05;0.80;;;;;;;10.68;100.00;98908.81;5095624;29;20031;-74
2023/03/13 08:55:31;;;;;;;4.45;1.02;;;;;;;10.72;100.00;98900.66;5095823;29;20382;-77
2023/03/13 08:58:02;;;;;;;3.25;1.02;;;;;;;10.83;100.00;98906.06;5100388;29;20035;-75
2023/03/13 09:00:32;;;;;;;5.05;1.33;;;;;;;10.89;100.00;98899.59;5103752;29;20031;-76
2023/03/13 09:03:03;;;;;;;4.18;1.20;;;;;;;10.94;100.00;98884.47;5093984;29;20079;-75
2023/03/13 09:05:36;;;;;;;2.00;0.95;;;;;;;10.92;100.00;98883.72;5110139;29;20133;-74
2023/03/13 09:08:06;;;;;;;3.33;1.00;;;;;;;11.09;100.00;98876.50;5095731;29;20435;-75
2023/03/13 09:10:37;;;;;;;3.95;1.00;;;;;;;11.25;100.00;98878.00;5095570;29;20027;-75
2023/03/13 09:13:07;;;;;;;3.13;0.80;;;;;;;11.26;100.00;98877.06;5095696;29;20062;-74
2023/03/13 09:15:37;;;;;;;2.92;0.80;;;;;;;11.28;100.00;98879.59;5089380;29;20094;-72
2023/03/13 09:18:08;;;;;;;1.98;0.77;;;;;;;11.31;100.00;98867.13;5093541;29;20027;-75
2023/03/13 09:20:38;;;;;;;1.52;0.70;;;;;;;11.33;100.00;98860.06;5105151;29;20039;-74
2023/03/13 09:23:08;;;;;;;1.63;0.70;;;;;;;11.40;100.00;98858.69;5094431;29;20027;-74
2023/03/13 09:25:38;;;;;;;2.22;0.70;;;;;;;11.58;100.00;98838.38;5095226;29;20109;-76
2023/03/13 09:28:09;;;;;;;1.88;0.70;;;;;;;11.81;100.00;98835.84;5108790;29;20207;-75
2023/03/13 09:30:40;;;;;;;6.18;0.80;;;;;;;11.86;100.00;98828.53;5102503;29;20058;-75
2023/03/13 09:33:10;;;;;;;2.80;0.88;;;;;;;12.11;100.00;98827.69;5084942;29;20512;-76
2023/03/13 09:35:40;;;;;;;2.13;1.00;;;;;;;12.27;100.00;98823.88;5086391;29;20039;-75
2023/03/13 09:38:11;;;;;;;1.75;0.60;;;;;;;12.50;100.00;98828.31;5108913;29;20122;-74
2023/03/13 09:40:45;;;;;;;1.52;0.60;;;;;;;12.56;100.00;98808.69;5095741;29;20107;-75
2023/03/13 09:43:46;;;;;;;2.67;0.60;;;;;;;12.61;100.00;98809.22;5095972;29;20498;-75
2023/03/13 09:46:29;;;;;;;2.97;0.70;;;;;;;12.82;100.00;98789.31;5099670;29;20028;-74
2023/03/13 09:49:08;;;;;;;1.70;0.80;;;;;;;13.07;100.00;98795.31;5093488;29;20063;-75
2023/03/13 09:51:43;;;;;;;1.95;0.60;;;;;;;13.27;100.00;98789.41;5095035;29;20031;-74
2023/03/13 09:54:23;;;;;;;2.40;0.68;;;;;;;13.32;100.00;98789.91;5110215;29;20032;-74
2023/03/13 09:56:59;;;;;;;2.00;0.60;;;;;;;13.31;100.00;98785.59;5096117;29;20024;-76
2023/03/13 09:59:47;;;;;;;1.25;0.40;;;;;;;13.35;100.00;98785.25;5095295;29;20034;-76
2023/03/13 10:02:35;;;;;;;1.45;0.50;;;;;;;13.40;100.00;98782.31;5094971;29;20087;-75
2023/03/13 10:05:08;;;;;;;1.70;0.60;;;;;;;13.34;100.00;98767.00;5105153;29;20036;-74
2023/03/13 10:07:38;;;;;;;1.33;0.43;;;;;;;13.30;100.00;98776.91;5097737;29;20120;-74
2023/03/13 10:10:20;;;;;;;1.15;0.50;;;;;;;13.37;100.00;98766.78;5093892;29;20032;-75
2023/03/13 10:13:00;;;;;;;2.78;0.68;;;;;;;13.46;100.00;98768.72;5093721;29;20526;-73
2023/03/13 10:16:02;;;;;;;0.80;0.40;;;;;;;13.39;100.00;98770.97;5098574;29;20035;-75
2023/03/13 10:18:32;;;;;;;0.95;0.50;;;;;;;13.29;100.00;98775.25;5092925;29;20048;-76
2023/03/13 10:21:17;;;;;;;1.65;0.50;;;;;;;13.27;100.00;98776.31;5098330;29;20054;-74
2023/03/13 10:23:54;;;;;;;1.27;0.70;;;;;;;13.13;100.00;98777.34;5100189;29;20038;-74
2023/03/13 10:26:31;;;;;;;2.00;0.80;;;;;;;13.16;100.00;98769.25;5103966;29;20030;-75
2023/03/13 10:29:19;;;;;;;1.35;0.63;;;;;;;13.15;100.00;98767.56;5098699;29;20118;-74
2023/03/13 10:31:57;;;;;;;2.05;0.70;;;;;;;13.10;100.00;98771.47;5098258;29;20552;-74
2023/03/13 10:34:43;;;;;;;2.67;0.55;;;;;;;13.11;100.00;98773.16;5094953;29;20031;-76
2023/03/13 10:37:18;;;;;;;1.55;0.57;;;;;;;13.07;100.00;98769.91;5097010;29;20035;-74
2023/03/13 10:39:49;;;;;;;1.50;0.60;;;;;;;13.00;100.00;98784.44;5098661;29;20136;-75
2023/03/13 10:42:26;;;;;;;2.15;0.65;;;;;;;12.91;100.00;98789.50;5097116;29;20067;-75
2023/03/13 10:45:04;;;;;;;2.05;0.70;;;;;;;12.89;100.00;98794.00;5107276;29;20042;-75
2023/03/13 10:47:35;;;;;;;1.92;0.70;;;;;;;13.04;100.00;98796.38;5103523;29;20428;-74
2023/03/13 10:50:05;;;;;;;3.72;0.80;;;;;;;13.04;100.00;98793.75;5095953;29;20188;-76
2023/03/13 10:52:47;;;;;;;4.03;0.80;;;;;;;13.18;100.00;98782.22;5111114;29;20130;-74
2023/03/13 10:55:22;;;;;;;3.20;1.00;;;;;;;13.23;100.00;98785.34;5096969;29;20039;-75
2023/03/13 10:58:01;;;;;;;3.40;1.02;;;;;;;13.21;100.00;98782.84;5097302;29;20028;-75
2023/03/13 11:00:35;;;;;;;2.90;0.95;;;;;;;13.33;100.00;98789.78;5098753;29;20043;-77
2023/03/13 11:03:33;;;;;;;2.95;1.13;;;;;;;13.27;100.00;98797.28;5098680;29;20036;-76
2023/03/13 11:06:03;;;;;;;2.78;1.20;;;;;;;13.44;100.00;98800.31;5098281;29;20401;-75
2023/03/13 11:08:35;;;;;;;3.95;1.20;;;;;;;13.50;100.00;98783.25;5097010;29;20042;-76
2023/03/13 11:11:17;;;;;;;3.47;1.30;;;;;;;13.51;100.00;98782.31;5097971;29;20031;-74
2023/03/13 11:13:48;;;;;;;2.88;1.02;;;;;;;13.62;100.00;98798.94;5100483;28;20044;-75
2023/03/13 11:16:21;;;;;;;3.55;1.05;;;;;;;13.56;100.00;98794.13;5107637;29;20044;-74
2023/03/13 11:19:15;;;;;;;1.83;0.85;;;;;;;13.61;100.00;98796.41;5096392;29;20500;-75
2023/03/13 11:22:10;;;;;;;3.25;1.23;;;;;;;13.87;100.00;98785.59;5095426;29;20099;-75
2023/03/13 11:25:03;;;;;;;3.45;1.35;;;;;;;14.19;100.00;98783.09;5095067;29;20035;-75
2023/03/13 11:27:39;;;;;;;5.05;1.17;;;;;;;14.31;100.00;98780.38;5096554;29;20472;-77
2023/03/13 11:30:18;;;;;;;3.95;1.20;;;;;;;14.47;100.00;98783.44;5106249;28;20061;-76
2023/03/13 11:32:53;;;;;;;5.63;1.20;;;;;;;14.49;100.00;98764.91;5098983;29;20055;-75
2023/03/13 11:35:39;;;;;;;3.70;1.10;;;;;;;14.72;100.00;98766.50;5096631;29;20060;-75
2023/03/13 11:38:30;;;;;;;2.78;1.15;;;;;;;14.65;100.00;98754.84;5093667;29;20046;-75
2023/03/13 11:41:25;;;;;;;3.50;0.95;;;;;;;14.80;100.00;98743.06;5094477;29;20055;-75
2023/03/13 11:44:08;;;;;;;1.83;0.90;;;;;;;14.60;100.00;98741.25;5100596;29;20042;-75
2023/03/13 11:46:54;;;;;;;2.38;0.82;;;;;;;14.57;100.00;98744.13;5098957;29;20196;-76
2023/03/13 11:49:52;;;;;;;2.05;1.00;;;;;;;14.57;100.00;98742.31;5096286;29;20079;-77
2023/03/13 11:52:54;;;;;;;4.10;1.20;;;;;;;14.54;100.00;98741.72;5093981;29;20064;-74
2023/03/13 11:55:33;;;;;;;4.40;1.35;;;;;;;14.62;100.00;98747.19;5096883;29;20461;-74